Wilson Gdynia — 8PSA — position and weather

sailwx.info

Track history (hours):
 
Tides and Currents Weather Stations Pressure Air Temp Water Temp Dewpoint Dewpoint Depression Visibility Wind Speed Wind Dir Waves Ship Positions

Wilson Gdynia

Last reported at 2014-Nov-01 09:34 UTC. Time now 2014-Nov-01 09:50 UTC.
Position N 55°52' W 004°21'.

Length 88 m; draft 5.7 m.

Type: Cargo ship. MMSI: 314192000.

Date/timePositionNaut miles runAvg speedWind from/ knotsBaromVisibWave heightAir tempDewpointWater temp
2014-Nov-01 09:34N 55°52' W 004°21'0 0.0
2014-Nov-01 08:34N 55°52' W 004°21'0 0.0
2014-Nov-01 07:27N 55°52' W 004°21'0 0.0
2014-Nov-01 06:27N 55°52' W 004°21'0 0.0
2014-Nov-01 05:31N 55°52' W 004°21'0 0.0
2014-Nov-01 04:33N 55°52' W 004°21'0 0.0
2014-Nov-01 03:33N 55°52' W 004°21'0 0.0
2014-Nov-01 02:33N 55°52' W 004°21'0 0.0
2014-Nov-01 01:31N 55°52' W 004°21'0 0.0
2014-Nov-01 00:28N 55°52' W 004°21'0 0.0
2014-Oct-31 23:27N 55°52' W 004°21'0 0.0
2014-Oct-31 22:34N 55°52' W 004°21'0 0.0
2014-Oct-31 21:33N 55°52' W 004°21'0 0.1
2014-Oct-31 20:32N 55°52' W 004°21'6 6.1
2014-Oct-31 19:33N 55°56' W 004°30'9 8.9
2014-Oct-31 18:33N 55°57' W 004°46'7 6.9
2014-Oct-31 17:33N 55°53' W 004°56'46 9.2
2014-Oct-31 12:34N 55°15' W 005°41'10 9.5
2014-Oct-31 11:33N 55°15' W 005°57'9 9.5
2014-Oct-31 10:33N 55°21' W 006°09'8 8.5
2014-Oct-31 09:33N 55°27' W 006°20'8 8.1
2014-Oct-31 08:33N 55°34' W 006°28'7 7.4
2014-Oct-31 07:33N 55°40' W 006°35'6 6.1
2014-Oct-31 06:33N 55°46' W 006°35'135 6.7
2014-Oct-30 10:26N 58°01' W 006°13'7 8.1
2014-Oct-30 09:33N 58°06' W 006°05'8 8.3
2014-Oct-30 08:33N 58°13' W 005°55'9 8.6
2014-Oct-30 07:33N 58°20' W 005°45'  
Track history (hours):
 
Tides and Currents Weather Stations Pressure Air Temp Water Temp Dewpoint Dewpoint Depression Visibility Wind Speed Wind Dir Waves Ship Positions

Wilson Gdynia

Last reported at 2014-Nov-01 09:34 UTC. Time now 2014-Nov-01 09:50 UTC.
Position N 55°52' W 004°21'.

Length 88 m; draft 5.7 m.

Type: Cargo ship. MMSI: 314192000.

Date/timePositionNaut miles runAvg speedWind from/ knotsBaromVisibWave heightAir tempDewpointWater temp
2014-Nov-01 09:34N 55°52' W 004°21'0 0.0
2014-Nov-01 08:34N 55°52' W 004°21'0 0.0
2014-Nov-01 07:27N 55°52' W 004°21'0 0.0
2014-Nov-01 06:27N 55°52' W 004°21'0 0.0
2014-Nov-01 05:31N 55°52' W 004°21'0 0.0
2014-Nov-01 04:33N 55°52' W 004°21'0 0.0
2014-Nov-01 03:33N 55°52' W 004°21'0 0.0
2014-Nov-01 02:33N 55°52' W 004°21'0 0.0
2014-Nov-01 01:31N 55°52' W 004°21'0 0.0
2014-Nov-01 00:28N 55°52' W 004°21'0 0.0
2014-Oct-31 23:27N 55°52' W 004°21'0 0.0
2014-Oct-31 22:34N 55°52' W 004°21'0 0.0
2014-Oct-31 21:33N 55°52' W 004°21'0 0.1
2014-Oct-31 20:32N 55°52' W 004°21'6 6.1
2014-Oct-31 19:33N 55°56' W 004°30'9 8.9
2014-Oct-31 18:33N 55°57' W 004°46'7 6.9
2014-Oct-31 17:33N 55°53' W 004°56'46 9.2
2014-Oct-31 12:34N 55°15' W 005°41'10 9.5
2014-Oct-31 11:33N 55°15' W 005°57'9 9.5
2014-Oct-31 10:33N 55°21' W 006°09'8 8.5
2014-Oct-31 09:33N 55°27' W 006°20'8 8.1
2014-Oct-31 08:33N 55°34' W 006°28'7 7.4
2014-Oct-31 07:33N 55°40' W 006°35'6 6.1
2014-Oct-31 06:33N 55°46' W 006°35'135 6.7
2014-Oct-30 10:26N 58°01' W 006°13'7 8.1
2014-Oct-30 09:33N 58°06' W 006°05'8 8.3
2014-Oct-30 08:33N 58°13' W 005°55'9 8.6
2014-Oct-30 07:33N 58°20' W 005°45'  

Dump ship's entire track history